Skip to main content

NOAA/GLERL Met Station at Muskegon, MI

Previous 5 days (top of hour only)
See also Previous 3 Hours (2 minute increments)
Jump down to Data
Switch to [English][Metric]
Zoom: Click and drag, Pan: shift-click and drag, Unzoom: double-click, Unzoom All






Note: Speed = mean wind during 2-minute period at top of hour,
Gust = max wind during 2-minute period at top of hour,
Peak = max wind during entire hour.
• See also 5-day windrose plot


NOAA/GLERL Met Station at Muskegon, MI

Previous 5 days (top of hour only)
See also Previous 3 Hours (2 minute increments)
Jump up to Graphs
Switch to [English][Metric]
                  Wind  Wind  Wind   Air   Dew   Rel     Sta   PAR
                   Spd   Gst   Dir  Temp    Pt   Hum    Pres uE/m2/
YYYY-MM-DD   EDT   kts   kts   deg     F     F     %   in Hg   sec
2017-04-24 22:00   8.7  10.7   134  63.7  32.3  30.5   29.18     2
2017-04-24 21:00   7.8   8.9   130  65.7  32.7  28.9   29.18     2
2017-04-24 20:00   8.7  11.3   142  69.4  32.3  24.9   29.20   328
2017-04-24 19:00   5.2   9.1   183  60.8  40.3  46.4   29.21   932
2017-04-24 18:00   3.7   4.7   324  60.3  43.6  53.8   29.23  1569
2017-04-24 17:00   3.9   4.3   308  60.6  40.6  47.2   29.25  1509
2017-04-24 16:00   2.3   2.7   344  62.2  41.5  46.2   29.28  1774
2017-04-24 15:00   4.3   5.1   346  61.0  40.3  46.0   29.32  2124
2017-04-24 14:00   3.9   4.5   274  60.3  40.2  47.1   29.35  2152
2017-04-24 13:00   6.8   7.2   233  54.7  45.1  69.8   29.37  2109
2017-04-24 12:00   3.7   5.6   199  61.7  40.1  44.6   29.39  2124
2017-04-24 11:00   5.8   7.2   119  59.5  39.2  46.5   29.41  1959
2017-04-24 10:00   8.6  10.3   107  52.9  40.1  61.5   29.42  1779
2017-04-24 09:00  10.7  14.2   105  48.4  38.8  69.2   29.42  1534
2017-04-24 08:00  15.2  17.9   109  45.0  37.8  75.8   29.41   983
2017-04-24 07:00  15.9  21.0   104  44.1  37.7  78.2   29.41    56
2017-04-24 06:00  12.8  16.5   109  44.4  37.6  76.8   29.39     2
2017-04-24 05:00  15.0  19.1   104  45.5  38.2  75.2   29.39     2
2017-04-24 04:00  15.2  17.3    93  46.6  39.4  75.9   29.39     2
2017-04-24 03:00  11.5  14.6   103  47.7  40.0  74.5   29.41     2
2017-04-24 02:00   9.1  10.5   102  46.9  41.4  80.9   29.41     2
2017-04-24 01:00   7.2   7.6   100  46.6  42.4  85.1   29.42     2
2017-04-24 00:00   5.1   5.2    83  45.0  42.3  90.4   29.42     2
2017-04-23 23:00   1.4   1.7   337  44.2  42.2  92.5   29.43     2
2017-04-23 22:00   0.8   1.0   236  45.9  43.2  90.4   29.44     2
2017-04-23 21:00   1.7   2.1   343  44.6  41.9  90.1   29.43     2
2017-04-23 20:00   5.1   5.4   299  45.7  42.2  87.4   29.42   460
2017-04-23 19:00   3.3   3.9   308  48.9  42.5  78.4   29.42  1441
2017-04-23 18:00   8.0   8.6   328  48.2  41.9  78.5   29.44  1804
2017-04-23 17:00   6.0   6.6   317  48.0  39.1  71.0   29.43  1965
2017-04-23 16:00   6.4   7.0   218  50.4  41.0  69.9   29.44  2031
2017-04-23 15:00   8.9   9.7   203  51.8  39.1  61.5   29.45  2069
2017-04-23 14:00   6.8   7.0   215  51.3  38.3  60.9   29.47  2073
2017-04-23 13:00   2.3   2.7   235  50.7  35.7  56.0   29.49  2065
2017-04-23 12:00   8.0   8.7   196  51.6  36.4  55.7   29.49  2005
2017-04-23 11:00   7.2   8.4   224  49.8  31.7  49.4   29.50  1952
2017-04-23 10:00   7.6   9.3   231  48.9  29.3  46.3   29.50  1836
2017-04-23 09:00   5.6   6.4   214  47.1  33.4  58.6   29.50  1596
2017-04-23 08:00   8.2   9.5   253  45.9  33.4  61.4   29.50  1084
2017-04-23 07:00   5.4   6.8   236  45.0  34.6  66.6   29.48    44
2017-04-23 06:00   2.3   2.7   237  40.1  34.3  79.5   29.48     2
2017-04-23 05:00   2.7   2.9   220  39.4  36.3  88.4   29.48     2
2017-04-23 04:00   1.6   1.9   230  40.5  35.8  83.3   29.48     2
2017-04-23 03:00   4.9   5.8   275  44.8  40.8  85.9   29.49     2
2017-04-23 02:00   3.1   3.5   206  44.1  41.8  91.5   29.50     2
2017-04-23 01:00   0.8   1.2   314  43.5  39.8  86.5   29.51     2
2017-04-22 20:00   9.7  11.1   347  47.1  37.4  68.6   29.51   642
2017-04-22 19:00  13.8  15.0   344  47.8  36.9  65.6   29.51  1445
2017-04-22 18:00  16.7  18.7   347  48.2  35.7  61.6   29.51  1789
2017-04-22 17:00  18.7  20.4   343  48.4  35.2  60.0   29.51  1949
2017-04-22 16:00  15.7  18.3   342  48.0  35.9  62.6   29.52  2019
2017-04-22 15:00  13.2  15.9   338  47.5  36.8  66.0   29.54  2055
2017-04-22 14:00  13.0  14.2   339  46.9  37.7  69.8   29.55  2066
2017-04-22 13:00  11.1  12.6   323  47.1  37.8  69.8   29.57  2052
2017-04-22 12:00  14.6  16.1   336  45.7  38.7  76.4   29.57  2025
2017-04-22 11:00   6.2   7.6   295  46.8  38.3  72.0   29.57  1910
2017-04-22 10:00   6.4   7.8    87  49.3  27.6  42.7   29.57  1827
2017-04-22 09:00   8.0  10.1    61  44.6  26.5  48.7   29.57  1585
2017-04-22 08:00   5.6   8.0    79  39.7  25.9  57.2   29.57   697
2017-04-22 07:00   5.4   7.6    74  37.9  29.5  71.3   29.54    29
2017-04-22 06:00   5.6   7.2    73  37.9  28.9  69.7   29.52     2
2017-04-22 05:00   8.6  12.2    51  38.7  29.7  69.8   29.54     2
2017-04-22 04:00   5.6   6.6    60  39.6  30.2  68.9   29.53     2
2017-04-22 03:00   5.2   7.0    64  40.8  31.0  67.8   29.53     2
2017-04-22 02:00   6.8   8.6    59  42.3  31.5  65.4   29.53     2
2017-04-22 01:00   7.8  10.3    60  42.8  32.6  66.8   29.52     2
2017-04-22 00:00   8.4  11.9    52  43.9  32.4  63.6   29.52     2
2017-04-21 23:00   6.6   8.9    48  44.6  33.8  65.6   29.52     2
2017-04-21 22:00   6.4   8.0    57  45.7  34.1  63.5   29.51     2
2017-04-21 21:00   7.2   8.7    31  46.8  34.0  60.9   29.48     2
2017-04-21 20:00  12.2  15.6    30  49.3  33.6  54.4   29.46   346
2017-04-21 19:00  15.0  18.1   344  45.7  38.4  75.5   29.46  1263
2017-04-21 18:00  16.9  19.6   345  46.6  38.0  71.8   29.45  1512
2017-04-21 17:00  20.0  22.4   338  45.9  37.6  72.5   29.44  2024
2017-04-21 16:00  22.6  26.8   335  45.3  38.0  75.4   29.44  1163
2017-04-21 15:00  18.7  21.6   338  43.3  36.9  77.7   29.44  2182
2017-04-21 14:00  17.3  22.9   354  43.3  35.3  72.9   29.42  1181
2017-04-21 13:00  21.8  25.7   351  41.5  35.4  78.6   29.44   784
2017-04-21 12:00  21.2  25.7   352  41.4  35.4  79.2   29.42   696
2017-04-21 11:00  22.9  25.5   345  41.2  35.2  78.9   29.40  1022
2017-04-21 10:00  18.5  22.6   349  40.6  35.5  81.8   29.39   520
2017-04-21 09:00  20.4  25.5   352  40.3  34.3  78.9   29.36   284
2017-04-21 08:00  24.5  28.2   342  40.6  35.8  82.6   29.35   273
2017-04-21 07:00  25.7  29.4   343  41.0  39.1  92.7   29.32    10
2017-04-21 06:00  23.5  26.2   321  42.4  40.4  92.4   29.30     2
2017-04-21 05:00  23.5  26.0   315  44.4  40.1  84.7   29.29     2
2017-04-21 04:00  22.4  25.7   313  44.6  40.8  86.5   29.27     2
2017-04-21 03:00  17.9  20.0   297  44.8  41.8  89.3   29.25     2
2017-04-21 02:00  13.8  15.7   286  44.4  41.8  90.4   29.25     2
2017-04-21 01:00  14.2  15.7   306  45.7  42.8  89.4   29.25     2
2017-04-21 00:00  14.0  15.0   298  46.2  44.0  91.7   29.25     2
2017-04-20 23:00   8.0   8.9   290  45.3  44.8  98.0   29.24     2
2017-04-20 22:00  10.5  11.1   308  46.4  45.7  97.4   29.24     2
2017-04-20 21:00  12.1  13.0   271  45.7  44.5  95.7   29.21     2
2017-04-20 20:00   6.8   8.0   281  46.2  45.3  96.6   29.19    32